Karmel — 9HA2896 — position and weather

sailwx.info

Track history (hours):
 
Tides and Currents Weather Stations Pressure Air Temp Water Temp Dewpoint Dewpoint Depression Visibility Wind Speed Wind Dir Waves Ship Positions

Karmel

Last reported at 2016-May-02 04:24 UTC. Time now 2016-May-02 19:23 UTC.
Position N 59°28' E 023°25'.

Length 90 m; draft 5.3 m.

Type: Cargo ship. MMSI: 256632000.

Date/timePositionNaut miles runAvg speedWind from/ knotsBaromVisibWave heightAir tempDewpointWater temp
2016-May-02 04:24N 59°28' E 023°25'16 0.3
2016-Apr-30 04:33N 59°36' E 023°53'1111.3
2016-Apr-30 03:33N 59°34' E 023°32'1111.0
2016-Apr-30 02:33N 59°31' E 023°11'33811.3
2016-Apr-28 20:30N 55°39' E 015°31'1111.5
2016-Apr-28 19:33N 55°34' E 015°14'1211.6
2016-Apr-28 18:33N 55°29' E 014°56'1211.6
2016-Apr-28 17:33N 55°23' E 014°38'1111.4
2016-Apr-28 16:33N 55°14' E 014°26'1110.9
2016-Apr-28 15:33N 55°10' E 014°08'1111.0
2016-Apr-28 14:33N 55°11' E 013°49'2311.3
2016-Apr-28 12:32N 55°14' E 013°09'1111.5
2016-Apr-28 11:33N 55°15' E 012°50'9 9.2
2016-Apr-28 10:33N 55°22' E 012°39'1111.1
2016-Apr-28 09:33N 55°33' E 012°42'9 8.4
2016-Apr-28 08:32N 55°41' E 012°38'0 0.0
2016-Apr-28 07:33N 55°41' E 012°38'0 0.0
2016-Apr-28 06:32N 55°41' E 012°38'0 0.0
2016-Apr-28 05:32N 55°41' E 012°38'0 0.0
2016-Apr-28 04:32N 55°41' E 012°38'0 0.0
2016-Apr-28 03:32N 55°41' E 012°38'0 0.0
2016-Apr-28 02:32N 55°41' E 012°38'0 0.0
2016-Apr-28 01:32N 55°41' E 012°38'0 0.0
2016-Apr-28 00:32N 55°41' E 012°38'0 0.0
2016-Apr-27 23:32N 55°41' E 012°38'0 0.0
2016-Apr-27 22:32N 55°41' E 012°38'0 0.0
2016-Apr-27 21:32N 55°41' E 012°38'0 0.0
2016-Apr-27 20:32N 55°41' E 012°38'0 0.0
2016-Apr-27 19:32N 55°41' E 012°38'0 0.0
2016-Apr-27 18:32N 55°41' E 012°38'0 0.0
2016-Apr-27 17:32N 55°41' E 012°38'0 0.0
2016-Apr-27 16:33N 55°41' E 012°38'0 0.0
2016-Apr-27 15:33N 55°41' E 012°38'0 0.0
2016-Apr-27 14:32N 55°41' E 012°38'0 0.0
2016-Apr-27 13:33N 55°41' E 012°38'0 0.0
2016-Apr-27 12:32N 55°41' E 012°38'0 0.0
2016-Apr-27 11:32N 55°41' E 012°38'0 0.0
2016-Apr-27 10:32N 55°41' E 012°38'0 0.0
2016-Apr-27 09:32N 55°41' E 012°38'0 0.0
2016-Apr-27 08:33N 55°41' E 012°38'0 0.0
2016-Apr-27 07:32N 55°41' E 012°38'0 0.0
2016-Apr-27 06:32N 55°41' E 012°38'0 0.0
2016-Apr-27 05:32N 55°41' E 012°38'6 6.2
2016-Apr-27 04:33N 55°36' E 012°42'1110.7
2016-Apr-27 03:33N 55°25' E 012°42'10 8.6
2016-Apr-27 02:22N 55°16' E 012°51'3210.0
2016-Apr-26 23:12N 55°14' E 013°47'710.9
2016-Apr-26 22:33N 55°14' E 013°59'1010.2
2016-Apr-26 21:33N 55°15' E 014°17'1010.4
2016-Apr-26 20:33N 55°23' E 014°29'1010.3
2016-Apr-26 19:33N 55°29' E 014°43'1010.1
2016-Apr-26 18:33N 55°34' E 014°59'1010.0
2016-Apr-26 17:33N 55°39' E 015°14'  
Track history (hours):
 
Tides and Currents Weather Stations Pressure Air Temp Water Temp Dewpoint Dewpoint Depression Visibility Wind Speed Wind Dir Waves Ship Positions

Karmel

Last reported at 2016-May-02 04:24 UTC. Time now 2016-May-02 19:23 UTC.
Position N 59°28' E 023°25'.

Length 90 m; draft 5.3 m.

Type: Cargo ship. MMSI: 256632000.

Date/timePositionNaut miles runAvg speedWind from/ knotsBaromVisibWave heightAir tempDewpointWater temp
2016-May-02 04:24N 59°28' E 023°25'16 0.3
2016-Apr-30 04:33N 59°36' E 023°53'1111.3
2016-Apr-30 03:33N 59°34' E 023°32'1111.0
2016-Apr-30 02:33N 59°31' E 023°11'33811.3
2016-Apr-28 20:30N 55°39' E 015°31'1111.5
2016-Apr-28 19:33N 55°34' E 015°14'1211.6
2016-Apr-28 18:33N 55°29' E 014°56'1211.6
2016-Apr-28 17:33N 55°23' E 014°38'1111.4
2016-Apr-28 16:33N 55°14' E 014°26'1110.9
2016-Apr-28 15:33N 55°10' E 014°08'1111.0
2016-Apr-28 14:33N 55°11' E 013°49'2311.3
2016-Apr-28 12:32N 55°14' E 013°09'1111.5
2016-Apr-28 11:33N 55°15' E 012°50'9 9.2
2016-Apr-28 10:33N 55°22' E 012°39'1111.1
2016-Apr-28 09:33N 55°33' E 012°42'9 8.4
2016-Apr-28 08:32N 55°41' E 012°38'0 0.0
2016-Apr-28 07:33N 55°41' E 012°38'0 0.0
2016-Apr-28 06:32N 55°41' E 012°38'0 0.0
2016-Apr-28 05:32N 55°41' E 012°38'0 0.0
2016-Apr-28 04:32N 55°41' E 012°38'0 0.0
2016-Apr-28 03:32N 55°41' E 012°38'0 0.0
2016-Apr-28 02:32N 55°41' E 012°38'0 0.0
2016-Apr-28 01:32N 55°41' E 012°38'0 0.0
2016-Apr-28 00:32N 55°41' E 012°38'0 0.0
2016-Apr-27 23:32N 55°41' E 012°38'0 0.0
2016-Apr-27 22:32N 55°41' E 012°38'0 0.0
2016-Apr-27 21:32N 55°41' E 012°38'0 0.0
2016-Apr-27 20:32N 55°41' E 012°38'0 0.0
2016-Apr-27 19:32N 55°41' E 012°38'0 0.0
2016-Apr-27 18:32N 55°41' E 012°38'0 0.0
2016-Apr-27 17:32N 55°41' E 012°38'0 0.0
2016-Apr-27 16:33N 55°41' E 012°38'0 0.0
2016-Apr-27 15:33N 55°41' E 012°38'0 0.0
2016-Apr-27 14:32N 55°41' E 012°38'0 0.0
2016-Apr-27 13:33N 55°41' E 012°38'0 0.0
2016-Apr-27 12:32N 55°41' E 012°38'0 0.0
2016-Apr-27 11:32N 55°41' E 012°38'0 0.0
2016-Apr-27 10:32N 55°41' E 012°38'0 0.0
2016-Apr-27 09:32N 55°41' E 012°38'0 0.0
2016-Apr-27 08:33N 55°41' E 012°38'0 0.0
2016-Apr-27 07:32N 55°41' E 012°38'0 0.0
2016-Apr-27 06:32N 55°41' E 012°38'0 0.0
2016-Apr-27 05:32N 55°41' E 012°38'6 6.2
2016-Apr-27 04:33N 55°36' E 012°42'1110.7
2016-Apr-27 03:33N 55°25' E 012°42'10 8.6
2016-Apr-27 02:22N 55°16' E 012°51'3210.0
2016-Apr-26 23:12N 55°14' E 013°47'710.9
2016-Apr-26 22:33N 55°14' E 013°59'1010.2
2016-Apr-26 21:33N 55°15' E 014°17'1010.4
2016-Apr-26 20:33N 55°23' E 014°29'1010.3
2016-Apr-26 19:33N 55°29' E 014°43'1010.1
2016-Apr-26 18:33N 55°34' E 014°59'1010.0
2016-Apr-26 17:33N 55°39' E 015°14'  

Dump ship's entire track history